sensor_id;sensor_type;location;lat;lon;timestamp;P1;durP1;ratioP1;P2;durP2;ratioP2
74793;SDS011;63320;50.768;6.724;2023-08-21T00:00:54;9.48;;;5.32;;
74793;SDS011;63320;50.768;6.724;2023-08-21T00:03:19;10.85;;;5.38;;
74793;SDS011;63320;50.768;6.724;2023-08-21T00:05:45;12.48;;;5.05;;
74793;SDS011;63320;50.768;6.724;2023-08-21T00:08:11;10.50;;;5.05;;
74793;SDS011;63320;50.768;6.724;2023-08-21T00:10:37;7.93;;;5.15;;
74793;SDS011;63320;50.768;6.724;2023-08-21T00:13:03;13.45;;;5.38;;
74793;SDS011;63320;50.768;6.724;2023-08-21T00:15:28;9.57;;;5.05;;
74793;SDS011;63320;50.768;6.724;2023-08-21T00:17:54;8.57;;;5.20;;
74793;SDS011;63320;50.768;6.724;2023-08-21T00:20:19;10.63;;;5.22;;
74793;SDS011;63320;50.768;6.724;2023-08-21T00:22:45;8.93;;;5.10;;
74793;SDS011;63320;50.768;6.724;2023-08-21T00:25:11;11.60;;;5.07;;
74793;SDS011;63320;50.768;6.724;2023-08-21T00:27:37;10.05;;;5.75;;
74793;SDS011;63320;50.768;6.724;2023-08-21T00:30:02;6.65;;;4.68;;
74793;SDS011;63320;50.768;6.724;2023-08-21T00:32:28;9.18;;;5.03;;
74793;SDS011;63320;50.768;6.724;2023-08-21T00:34:53;11.75;;;5.28;;
74793;SDS011;63320;50.768;6.724;2023-08-21T00:37:19;10.70;;;5.45;;
74793;SDS011;63320;50.768;6.724;2023-08-21T00:39:44;7.88;;;5.38;;
74793;SDS011;63320;50.768;6.724;2023-08-21T00:42:11;11.00;;;5.88;;
74793;SDS011;63320;50.768;6.724;2023-08-21T00:44:36;11.25;;;5.75;;
74793;SDS011;63320;50.768;6.724;2023-08-21T00:47:01;11.35;;;5.85;;
74793;SDS011;63320;50.768;6.724;2023-08-21T00:49:27;10.75;;;5.97;;
74793;SDS011;63320;50.768;6.724;2023-08-21T00:51:54;11.63;;;6.10;;
74793;SDS011;63320;50.768;6.724;2023-08-21T00:54:19;10.45;;;5.50;;
74793;SDS011;63320;50.768;6.724;2023-08-21T00:56:45;11.85;;;5.82;;
74793;SDS011;63320;50.768;6.724;2023-08-21T00:59:11;9.35;;;5.55;;
74793;SDS011;63320;50.768;6.724;2023-08-21T01:01:37;9.20;;;5.43;;
74793;SDS011;63320;50.768;6.724;2023-08-21T01:04:03;10.07;;;5.60;;
74793;SDS011;63320;50.768;6.724;2023-08-21T01:06:28;9.57;;;5.43;;
74793;SDS011;63320;50.768;6.724;2023-08-21T01:08:55;11.18;;;5.85;;
74793;SDS011;63320;50.768;6.724;2023-08-21T01:11:25;9.10;;;6.07;;
74793;SDS011;63320;50.768;6.724;2023-08-21T01:14:06;10.48;;;6.10;;
74793;SDS011;63320;50.768;6.724;2023-08-21T01:16:40;12.20;;;5.60;;
74793;SDS011;63320;50.768;6.724;2023-08-21T01:19:09;12.50;;;6.38;;
74793;SDS011;63320;50.768;6.724;2023-08-21T01:21:39;8.80;;;5.63;;
74793;SDS011;63320;50.768;6.724;2023-08-21T01:24:06;8.48;;;5.38;;
74793;SDS011;63320;50.768;6.724;2023-08-21T01:26:32;10.65;;;5.63;;
74793;SDS011;63320;50.768;6.724;2023-08-21T01:28:57;10.20;;;5.95;;
74793;SDS011;63320;50.768;6.724;2023-08-21T01:31:24;10.80;;;5.93;;
74793;SDS011;63320;50.768;6.724;2023-08-21T01:33:56;9.30;;;5.70;;
74793;SDS011;63320;50.768;6.724;2023-08-21T01:36:24;10.43;;;6.03;;
74793;SDS011;63320;50.768;6.724;2023-08-21T01:38:50;10.10;;;5.88;;
74793;SDS011;63320;50.768;6.724;2023-08-21T01:41:17;11.15;;;6.22;;
74793;SDS011;63320;50.768;6.724;2023-08-21T01:43:42;12.75;;;5.93;;
74793;SDS011;63320;50.768;6.724;2023-08-21T01:46:08;10.55;;;5.95;;
74793;SDS011;63320;50.768;6.724;2023-08-21T01:48:35;12.38;;;6.45;;
74793;SDS011;63320;50.768;6.724;2023-08-21T01:51:00;10.38;;;5.47;;
74793;SDS011;63320;50.768;6.724;2023-08-21T01:53:26;11.85;;;6.03;;
74793;SDS011;63320;50.768;6.724;2023-08-21T01:55:51;9.57;;;5.65;;
74793;SDS011;63320;50.768;6.724;2023-08-21T01:58:18;11.80;;;6.60;;
74793;SDS011;63320;50.768;6.724;2023-08-21T02:00:46;10.38;;;6.13;;
74793;SDS011;63320;50.768;6.724;2023-08-21T02:03:11;8.75;;;5.75;;
74793;SDS011;63320;50.768;6.724;2023-08-21T02:05:37;10.38;;;5.50;;
74793;SDS011;63320;50.768;6.724;2023-08-21T02:08:06;9.43;;;5.20;;
74793;SDS011;63320;50.768;6.724;2023-08-21T02:10:32;10.68;;;5.70;;
74793;SDS011;63320;50.768;6.724;2023-08-21T02:12:57;13.32;;;5.95;;
74793;SDS011;63320;50.768;6.724;2023-08-21T02:15:24;10.57;;;5.97;;
74793;SDS011;63320;50.768;6.724;2023-08-21T02:17:49;11.48;;;5.63;;
74793;SDS011;63320;50.768;6.724;2023-08-21T02:20:15;11.82;;;6.22;;
74793;SDS011;63320;50.768;6.724;2023-08-21T02:22:40;9.30;;;6.10;;
74793;SDS011;63320;50.768;6.724;2023-08-21T02:25:05;9.75;;;6.15;;
74793;SDS011;63320;50.768;6.724;2023-08-21T02:27:31;10.48;;;6.50;;
74793;SDS011;63320;50.768;6.724;2023-08-21T02:29:56;8.77;;;6.10;;
74793;SDS011;63320;50.768;6.724;2023-08-21T02:32:23;12.45;;;6.80;;
74793;SDS011;63320;50.768;6.724;2023-08-21T02:34:48;11.15;;;6.82;;
74793;SDS011;63320;50.768;6.724;2023-08-21T02:37:14;10.00;;;6.82;;
74793;SDS011;63320;50.768;6.724;2023-08-21T02:39:39;12.75;;;6.93;;
74793;SDS011;63320;50.768;6.724;2023-08-21T02:42:04;10.43;;;6.90;;
74793;SDS011;63320;50.768;6.724;2023-08-21T02:44:30;11.52;;;7.32;;
74793;SDS011;63320;50.768;6.724;2023-08-21T02:46:55;12.63;;;7.88;;
74793;SDS011;63320;50.768;6.724;2023-08-21T02:49:22;12.82;;;8.27;;
74793;SDS011;63320;50.768;6.724;2023-08-21T02:51:47;11.68;;;7.68;;
74793;SDS011;63320;50.768;6.724;2023-08-21T02:54:13;11.15;;;7.35;;
74793;SDS011;63320;50.768;6.724;2023-08-21T02:56:38;11.27;;;7.32;;
74793;SDS011;63320;50.768;6.724;2023-08-21T02:59:03;12.40;;;7.75;;
74793;SDS011;63320;50.768;6.724;2023-08-21T03:01:29;13.15;;;8.00;;
74793;SDS011;63320;50.768;6.724;2023-08-21T03:03:54;14.15;;;8.30;;
74793;SDS011;63320;50.768;6.724;2023-08-21T03:06:20;12.23;;;7.68;;
74793;SDS011;63320;50.768;6.724;2023-08-21T03:08:46;12.90;;;7.63;;
74793;SDS011;63320;50.768;6.724;2023-08-21T03:11:11;15.00;;;8.15;;
74793;SDS011;63320;50.768;6.724;2023-08-21T03:13:37;13.82;;;8.20;;
74793;SDS011;63320;50.768;6.724;2023-08-21T03:16:02;16.30;;;9.05;;
74793;SDS011;63320;50.768;6.724;2023-08-21T03:18:30;19.35;;;9.23;;
74793;SDS011;63320;50.768;6.724;2023-08-21T03:20:56;14.80;;;8.25;;
74793;SDS011;63320;50.768;6.724;2023-08-21T03:23:22;12.02;;;8.35;;
74793;SDS011;63320;50.768;6.724;2023-08-21T03:25:48;16.95;;;9.02;;
74793;SDS011;63320;50.768;6.724;2023-08-21T03:28:13;14.13;;;8.60;;
74793;SDS011;63320;50.768;6.724;2023-08-21T03:30:38;14.63;;;8.57;;
74793;SDS011;63320;50.768;6.724;2023-08-21T03:33:04;15.10;;;8.13;;
74793;SDS011;63320;50.768;6.724;2023-08-21T03:35:29;15.95;;;8.30;;
74793;SDS011;63320;50.768;6.724;2023-08-21T03:37:54;12.95;;;8.10;;
74793;SDS011;63320;50.768;6.724;2023-08-21T03:40:21;14.23;;;8.13;;
74793;SDS011;63320;50.768;6.724;2023-08-21T03:42:46;13.95;;;8.05;;
74793;SDS011;63320;50.768;6.724;2023-08-21T03:45:12;16.95;;;9.23;;
74793;SDS011;63320;50.768;6.724;2023-08-21T03:47:37;12.68;;;8.48;;
74793;SDS011;63320;50.768;6.724;2023-08-21T03:50:03;12.50;;;8.70;;
74793;SDS011;63320;50.768;6.724;2023-08-21T03:52:28;13.45;;;8.43;;
74793;SDS011;63320;50.768;6.724;2023-08-21T03:54:54;13.15;;;8.27;;
74793;SDS011;63320;50.768;6.724;2023-08-21T03:57:20;16.35;;;9.27;;
74793;SDS011;63320;50.768;6.724;2023-08-21T03:59:46;18.30;;;8.50;;
74793;SDS011;63320;50.768;6.724;2023-08-21T04:02:11;12.40;;;8.98;;
74793;SDS011;63320;50.768;6.724;2023-08-21T04:04:36;16.15;;;8.70;;
74793;SDS011;63320;50.768;6.724;2023-08-21T04:07:01;14.10;;;7.95;;
74793;SDS011;63320;50.768;6.724;2023-08-21T04:09:27;13.40;;;8.68;;
74793;SDS011;63320;50.768;6.724;2023-08-21T04:11:52;14.25;;;8.10;;
74793;SDS011;63320;50.768;6.724;2023-08-21T04:14:19;14.57;;;9.00;;
74793;SDS011;63320;50.768;6.724;2023-08-21T04:16:44;13.93;;;8.10;;
74793;SDS011;63320;50.768;6.724;2023-08-21T04:19:09;14.27;;;7.60;;
74793;SDS011;63320;50.768;6.724;2023-08-21T04:21:35;15.02;;;7.88;;
74793;SDS011;63320;50.768;6.724;2023-08-21T04:24:00;11.77;;;7.07;;
74793;SDS011;63320;50.768;6.724;2023-08-21T04:26:26;14.38;;;8.77;;
74793;SDS011;63320;50.768;6.724;2023-08-21T04:28:51;14.77;;;7.50;;
74793;SDS011;63320;50.768;6.724;2023-08-21T04:31:18;13.63;;;7.88;;
74793;SDS011;63320;50.768;6.724;2023-08-21T04:33:43;14.18;;;8.43;;
74793;SDS011;63320;50.768;6.724;2023-08-21T04:36:13;13.48;;;8.35;;
74793;SDS011;63320;50.768;6.724;2023-08-21T04:38:39;10.93;;;7.93;;
74793;SDS011;63320;50.768;6.724;2023-08-21T04:41:08;14.85;;;7.32;;
74793;SDS011;63320;50.768;6.724;2023-08-21T04:43:33;14.02;;;7.78;;
74793;SDS011;63320;50.768;6.724;2023-08-21T04:45:59;17.80;;;7.88;;
74793;SDS011;63320;50.768;6.724;2023-08-21T04:48:26;14.10;;;8.13;;
74793;SDS011;63320;50.768;6.724;2023-08-21T04:50:51;13.23;;;8.13;;
74793;SDS011;63320;50.768;6.724;2023-08-21T04:53:16;13.75;;;7.45;;
74793;SDS011;63320;50.768;6.724;2023-08-21T04:55:42;14.50;;;7.45;;
74793;SDS011;63320;50.768;6.724;2023-08-21T04:58:07;11.00;;;7.55;;
74793;SDS011;63320;50.768;6.724;2023-08-21T05:00:33;13.65;;;8.50;;
74793;SDS011;63320;50.768;6.724;2023-08-21T05:02:58;16.10;;;7.63;;
74793;SDS011;63320;50.768;6.724;2023-08-21T05:05:25;14.15;;;7.50;;
74793;SDS011;63320;50.768;6.724;2023-08-21T05:07:51;11.43;;;6.55;;
74793;SDS011;63320;50.768;6.724;2023-08-21T05:10:16;10.98;;;7.07;;
74793;SDS011;63320;50.768;6.724;2023-08-21T05:12:42;17.17;;;7.53;;
74793;SDS011;63320;50.768;6.724;2023-08-21T05:15:07;17.15;;;8.07;;
74793;SDS011;63320;50.768;6.724;2023-08-21T05:17:33;14.70;;;8.30;;
74793;SDS011;63320;50.768;6.724;2023-08-21T05:19:59;13.68;;;7.47;;
74793;SDS011;63320;50.768;6.724;2023-08-21T05:22:25;14.13;;;7.72;;
74793;SDS011;63320;50.768;6.724;2023-08-21T05:24:51;13.32;;;7.13;;
74793;SDS011;63320;50.768;6.724;2023-08-21T05:27:16;12.75;;;7.82;;
74793;SDS011;63320;50.768;6.724;2023-08-21T05:29:41;15.88;;;7.38;;
74793;SDS011;63320;50.768;6.724;2023-08-21T05:32:07;15.57;;;7.40;;
74793;SDS011;63320;50.768;6.724;2023-08-21T05:34:32;14.52;;;7.15;;
74793;SDS011;63320;50.768;6.724;2023-08-21T05:36:57;14.50;;;7.32;;
74793;SDS011;63320;50.768;6.724;2023-08-21T05:39:24;11.25;;;6.80;;
74793;SDS011;63320;50.768;6.724;2023-08-21T05:41:49;12.30;;;6.82;;
74793;SDS011;63320;50.768;6.724;2023-08-21T05:44:15;12.98;;;6.78;;
74793;SDS011;63320;50.768;6.724;2023-08-21T05:46:40;12.05;;;6.75;;
74793;SDS011;63320;50.768;6.724;2023-08-21T05:49:05;16.10;;;6.50;;
74793;SDS011;63320;50.768;6.724;2023-08-21T05:51:31;17.30;;;7.75;;
74793;SDS011;63320;50.768;6.724;2023-08-21T05:53:56;14.35;;;6.57;;
74793;SDS011;63320;50.768;6.724;2023-08-21T05:56:23;16.23;;;8.15;;
74793;SDS011;63320;50.768;6.724;2023-08-21T05:58:48;18.63;;;7.43;;
74793;SDS011;63320;50.768;6.724;2023-08-21T06:01:13;12.70;;;6.38;;
74793;SDS011;63320;50.768;6.724;2023-08-21T06:03:39;16.48;;;6.68;;
74793;SDS011;63320;50.768;6.724;2023-08-21T06:06:04;17.85;;;8.10;;
74793;SDS011;63320;50.768;6.724;2023-08-21T06:08:30;14.27;;;7.90;;
74793;SDS011;63320;50.768;6.724;2023-08-21T06:10:55;10.98;;;7.45;;
74793;SDS011;63320;50.768;6.724;2023-08-21T06:13:22;18.92;;;8.38;;
74793;SDS011;63320;50.768;6.724;2023-08-21T06:15:47;14.32;;;7.72;;
74793;SDS011;63320;50.768;6.724;2023-08-21T06:18:13;15.75;;;8.40;;
74793;SDS011;63320;50.768;6.724;2023-08-21T06:20:38;18.05;;;9.15;;
74793;SDS011;63320;50.768;6.724;2023-08-21T06:23:03;14.05;;;8.07;;
74793;SDS011;63320;50.768;6.724;2023-08-21T06:25:29;14.43;;;7.97;;
74793;SDS011;63320;50.768;6.724;2023-08-21T06:27:54;13.20;;;7.32;;
74793;SDS011;63320;50.768;6.724;2023-08-21T06:30:21;16.25;;;7.47;;
74793;SDS011;63320;50.768;6.724;2023-08-21T06:32:46;16.05;;;7.72;;
74793;SDS011;63320;50.768;6.724;2023-08-21T06:35:11;19.92;;;8.50;;
74793;SDS011;63320;50.768;6.724;2023-08-21T06:37:37;17.80;;;7.57;;
74793;SDS011;63320;50.768;6.724;2023-08-21T06:40:02;18.58;;;7.05;;
74793;SDS011;63320;50.768;6.724;2023-08-21T06:42:28;20.63;;;7.43;;
74793;SDS011;63320;50.768;6.724;2023-08-21T06:44:54;19.73;;;7.95;;
74793;SDS011;63320;50.768;6.724;2023-08-21T06:47:20;18.85;;;7.35;;
74793;SDS011;63320;50.768;6.724;2023-08-21T06:49:46;18.13;;;6.53;;
74793;SDS011;63320;50.768;6.724;2023-08-21T06:52:11;18.38;;;8.45;;
74793;SDS011;63320;50.768;6.724;2023-08-21T06:54:36;15.73;;;7.35;;
74793;SDS011;63320;50.768;6.724;2023-08-21T06:57:02;15.23;;;9.18;;
74793;SDS011;63320;50.768;6.724;2023-08-21T06:59:27;18.20;;;9.27;;
74793;SDS011;63320;50.768;6.724;2023-08-21T07:01:52;17.05;;;9.65;;
74793;SDS011;63320;50.768;6.724;2023-08-21T07:04:19;18.90;;;9.35;;
74793;SDS011;63320;50.768;6.724;2023-08-21T07:06:44;14.32;;;8.55;;
74793;SDS011;63320;50.768;6.724;2023-08-21T07:09:10;19.58;;;9.48;;
74793;SDS011;63320;50.768;6.724;2023-08-21T07:11:35;20.10;;;9.35;;
74793;SDS011;63320;50.768;6.724;2023-08-21T07:14:00;15.50;;;9.27;;
74793;SDS011;63320;50.768;6.724;2023-08-21T07:16:26;17.10;;;10.40;;
74793;SDS011;63320;50.768;6.724;2023-08-21T07:18:51;20.67;;;11.48;;
74793;SDS011;63320;50.768;6.724;2023-08-21T07:21:18;18.35;;;10.98;;
74793;SDS011;63320;50.768;6.724;2023-08-21T07:23:43;18.13;;;11.27;;
74793;SDS011;63320;50.768;6.724;2023-08-21T07:26:08;19.52;;;11.02;;
74793;SDS011;63320;50.768;6.724;2023-08-21T07:28:34;21.35;;;11.05;;
74793;SDS011;63320;50.768;6.724;2023-08-21T07:30:59;15.95;;;11.45;;
74793;SDS011;63320;50.768;6.724;2023-08-21T07:33:25;16.42;;;11.35;;
74793;SDS011;63320;50.768;6.724;2023-08-21T07:35:58;17.95;;;11.00;;
74793;SDS011;63320;50.768;6.724;2023-08-21T07:38:26;19.13;;;10.65;;
74793;SDS011;63320;50.768;6.724;2023-08-21T07:41:01;17.58;;;11.02;;
74793;SDS011;63320;50.768;6.724;2023-08-21T07:43:27;20.40;;;10.73;;
74793;SDS011;63320;50.768;6.724;2023-08-21T07:45:52;21.50;;;11.90;;
74793;SDS011;63320;50.768;6.724;2023-08-21T07:48:18;21.02;;;13.43;;
74793;SDS011;63320;50.768;6.724;2023-08-21T07:50:49;19.23;;;10.88;;
74793;SDS011;63320;50.768;6.724;2023-08-21T07:53:16;18.73;;;12.85;;
74793;SDS011;63320;50.768;6.724;2023-08-21T07:55:42;20.90;;;12.20;;
74793;SDS011;63320;50.768;6.724;2023-08-21T07:58:08;24.85;;;14.85;;
74793;SDS011;63320;50.768;6.724;2023-08-21T08:00:33;18.92;;;12.05;;
74793;SDS011;63320;50.768;6.724;2023-08-21T08:02:58;27.38;;;13.80;;
74793;SDS011;63320;50.768;6.724;2023-08-21T08:05:24;22.60;;;12.82;;
74793;SDS011;63320;50.768;6.724;2023-08-21T08:07:49;19.35;;;11.70;;
74793;SDS011;63320;50.768;6.724;2023-08-21T08:10:14;22.90;;;13.25;;
74793;SDS011;63320;50.768;6.724;2023-08-21T08:12:42;19.98;;;12.82;;
74793;SDS011;63320;50.768;6.724;2023-08-21T08:15:08;22.48;;;15.52;;
74793;SDS011;63320;50.768;6.724;2023-08-21T08:17:33;23.63;;;16.98;;
74793;SDS011;63320;50.768;6.724;2023-08-21T08:19:59;22.20;;;15.75;;
74793;SDS011;63320;50.768;6.724;2023-08-21T08:22:24;19.40;;;13.85;;
74793;SDS011;63320;50.768;6.724;2023-08-21T08:24:49;20.02;;;13.63;;
74793;SDS011;63320;50.768;6.724;2023-08-21T08:27:15;22.10;;;12.43;;
74793;SDS011;63320;50.768;6.724;2023-08-21T08:29:41;20.30;;;11.52;;
74793;SDS011;63320;50.768;6.724;2023-08-21T08:32:07;19.73;;;10.38;;
74793;SDS011;63320;50.768;6.724;2023-08-21T08:34:32;16.80;;;9.65;;
74793;SDS011;63320;50.768;6.724;2023-08-21T08:36:57;18.08;;;9.38;;
74793;SDS011;63320;50.768;6.724;2023-08-21T08:39:23;19.15;;;9.95;;
74793;SDS011;63320;50.768;6.724;2023-08-21T08:41:50;16.20;;;9.02;;
74793;SDS011;63320;50.768;6.724;2023-08-21T08:44:21;16.33;;;8.80;;
74793;SDS011;63320;50.768;6.724;2023-08-21T08:46:51;14.73;;;8.55;;
74793;SDS011;63320;50.768;6.724;2023-08-21T08:49:17;15.38;;;7.43;;
74793;SDS011;63320;50.768;6.724;2023-08-21T08:51:42;16.65;;;9.20;;
74793;SDS011;63320;50.768;6.724;2023-08-21T08:54:09;15.10;;;8.77;;
74793;SDS011;63320;50.768;6.724;2023-08-21T08:56:36;16.67;;;8.68;;
74793;SDS011;63320;50.768;6.724;2023-08-21T08:59:01;14.48;;;7.03;;
74793;SDS011;63320;50.768;6.724;2023-08-21T09:01:27;12.57;;;6.95;;
74793;SDS011;63320;50.768;6.724;2023-08-21T09:03:55;16.02;;;7.13;;
74793;SDS011;63320;50.768;6.724;2023-08-21T09:06:20;15.85;;;8.60;;
74793;SDS011;63320;50.768;6.724;2023-08-21T09:08:52;15.30;;;8.32;;
74793;SDS011;63320;50.768;6.724;2023-08-21T09:11:18;14.93;;;7.97;;
74793;SDS011;63320;50.768;6.724;2023-08-21T09:13:45;15.35;;;7.47;;
74793;SDS011;63320;50.768;6.724;2023-08-21T09:16:10;22.63;;;8.70;;
74793;SDS011;63320;50.768;6.724;2023-08-21T09:18:36;12.52;;;7.60;;
74793;SDS011;63320;50.768;6.724;2023-08-21T09:21:03;17.02;;;7.75;;
74793;SDS011;63320;50.768;6.724;2023-08-21T09:23:28;15.07;;;9.40;;
74793;SDS011;63320;50.768;6.724;2023-08-21T09:25:53;17.65;;;8.80;;
74793;SDS011;63320;50.768;6.724;2023-08-21T09:28:19;14.77;;;7.78;;
74793;SDS011;63320;50.768;6.724;2023-08-21T09:30:46;13.43;;;7.70;;
74793;SDS011;63320;50.768;6.724;2023-08-21T09:33:12;17.15;;;8.02;;
74793;SDS011;63320;50.768;6.724;2023-08-21T09:35:37;21.00;;;7.72;;
74793;SDS011;63320;50.768;6.724;2023-08-21T09:38:04;15.15;;;8.00;;
74793;SDS011;63320;50.768;6.724;2023-08-21T09:40:30;15.70;;;9.13;;
74793;SDS011;63320;50.768;6.724;2023-08-21T09:42:55;14.93;;;8.68;;
74793;SDS011;63320;50.768;6.724;2023-08-21T09:45:21;13.85;;;7.65;;
74793;SDS011;63320;50.768;6.724;2023-08-21T09:47:47;15.40;;;8.65;;
74793;SDS011;63320;50.768;6.724;2023-08-21T09:50:12;16.75;;;8.30;;
74793;SDS011;63320;50.768;6.724;2023-08-21T09:52:38;14.82;;;7.82;;
74793;SDS011;63320;50.768;6.724;2023-08-21T09:55:05;16.75;;;9.20;;
74793;SDS011;63320;50.768;6.724;2023-08-21T09:57:31;17.88;;;8.55;;
74793;SDS011;63320;50.768;6.724;2023-08-21T09:59:57;13.98;;;8.38;;
74793;SDS011;63320;50.768;6.724;2023-08-21T10:02:24;13.38;;;7.60;;
74793;SDS011;63320;50.768;6.724;2023-08-21T10:04:51;16.98;;;8.68;;
74793;SDS011;63320;50.768;6.724;2023-08-21T10:07:17;15.70;;;10.70;;
74793;SDS011;63320;50.768;6.724;2023-08-21T10:09:46;15.68;;;8.10;;
74793;SDS011;63320;50.768;6.724;2023-08-21T10:12:13;16.48;;;9.60;;
74793;SDS011;63320;50.768;6.724;2023-08-21T10:14:39;17.13;;;9.05;;
74793;SDS011;63320;50.768;6.724;2023-08-21T10:17:06;15.15;;;8.57;;
74793;SDS011;63320;50.768;6.724;2023-08-21T10:19:32;15.40;;;8.85;;
74793;SDS011;63320;50.768;6.724;2023-08-21T10:21:57;18.40;;;8.30;;
74793;SDS011;63320;50.768;6.724;2023-08-21T10:24:26;20.38;;;9.10;;
74793;SDS011;63320;50.768;6.724;2023-08-21T10:26:52;12.70;;;8.15;;
74793;SDS011;63320;50.768;6.724;2023-08-21T10:29:19;15.73;;;8.05;;
74793;SDS011;63320;50.768;6.724;2023-08-21T10:31:44;18.77;;;9.32;;
74793;SDS011;63320;50.768;6.724;2023-08-21T10:34:10;15.45;;;9.63;;
74793;SDS011;63320;50.768;6.724;2023-08-21T10:36:37;14.90;;;9.10;;
74793;SDS011;63320;50.768;6.724;2023-08-21T10:39:03;16.73;;;9.30;;
74793;SDS011;63320;50.768;6.724;2023-08-21T10:41:29;15.50;;;8.95;;
74793;SDS011;63320;50.768;6.724;2023-08-21T10:43:54;13.80;;;8.02;;
74793;SDS011;63320;50.768;6.724;2023-08-21T10:46:21;16.17;;;9.13;;
74793;SDS011;63320;50.768;6.724;2023-08-21T10:48:46;16.17;;;8.20;;
74793;SDS011;63320;50.768;6.724;2023-08-21T10:51:11;19.00;;;8.27;;
74793;SDS011;63320;50.768;6.724;2023-08-21T10:53:37;12.55;;;7.80;;
74793;SDS011;63320;50.768;6.724;2023-08-21T10:56:02;19.20;;;8.73;;
74793;SDS011;63320;50.768;6.724;2023-08-21T10:58:31;16.73;;;7.90;;
74793;SDS011;63320;50.768;6.724;2023-08-21T11:00:59;13.00;;;7.35;;
74793;SDS011;63320;50.768;6.724;2023-08-21T11:03:26;16.67;;;8.77;;
74793;SDS011;63320;50.768;6.724;2023-08-21T11:06:01;15.20;;;8.20;;
74793;SDS011;63320;50.768;6.724;2023-08-21T11:08:27;14.35;;;7.85;;
74793;SDS011;63320;50.768;6.724;2023-08-21T11:10:53;17.02;;;7.38;;
74793;SDS011;63320;50.768;6.724;2023-08-21T11:13:18;16.75;;;7.50;;
74793;SDS011;63320;50.768;6.724;2023-08-21T11:15:44;16.80;;;7.20;;
74793;SDS011;63320;50.768;6.724;2023-08-21T11:18:10;14.88;;;8.07;;
74793;SDS011;63320;50.768;6.724;2023-08-21T11:20:37;13.40;;;7.47;;
74793;SDS011;63320;50.768;6.724;2023-08-21T11:23:03;12.35;;;6.82;;
74793;SDS011;63320;50.768;6.724;2023-08-21T11:25:29;15.50;;;7.85;;
74793;SDS011;63320;50.768;6.724;2023-08-21T11:27:55;11.75;;;7.93;;
74793;SDS011;63320;50.768;6.724;2023-08-21T11:30:21;15.05;;;7.53;;
74793;SDS011;63320;50.768;6.724;2023-08-21T11:32:47;13.02;;;7.38;;
74793;SDS011;63320;50.768;6.724;2023-08-21T11:35:12;14.52;;;8.88;;
74793;SDS011;63320;50.768;6.724;2023-08-21T11:37:43;13.30;;;7.88;;
74793;SDS011;63320;50.768;6.724;2023-08-21T11:40:09;16.55;;;8.70;;
74793;SDS011;63320;50.768;6.724;2023-08-21T11:42:34;17.10;;;7.97;;
74793;SDS011;63320;50.768;6.724;2023-08-21T11:45:00;16.80;;;8.75;;
74793;SDS011;63320;50.768;6.724;2023-08-21T11:47:30;13.30;;;7.20;;
74793;SDS011;63320;50.768;6.724;2023-08-21T11:52:22;12.37;;;7.43;;
74793;SDS011;63320;50.768;6.724;2023-08-21T11:54:50;19.35;;;8.65;;
74793;SDS011;63320;50.768;6.724;2023-08-21T11:57:16;14.10;;;7.75;;
74793;SDS011;63320;50.768;6.724;2023-08-21T11:59:43;14.88;;;7.15;;
74793;SDS011;63320;50.768;6.724;2023-08-21T12:02:13;14.95;;;7.90;;
74793;SDS011;63320;50.768;6.724;2023-08-21T12:04:40;13.68;;;8.15;;
74793;SDS011;63320;50.768;6.724;2023-08-21T12:07:05;12.80;;;7.68;;
74793;SDS011;63320;50.768;6.724;2023-08-21T12:09:30;13.27;;;7.10;;
74793;SDS011;63320;50.768;6.724;2023-08-21T12:11:58;15.10;;;7.00;;
74793;SDS011;63320;50.768;6.724;2023-08-21T12:14:23;14.60;;;8.63;;
74793;SDS011;63320;50.768;6.724;2023-08-21T12:16:49;12.27;;;7.95;;
74793;SDS011;63320;50.768;6.724;2023-08-21T12:19:14;12.77;;;8.25;;
74793;SDS011;63320;50.768;6.724;2023-08-21T12:21:39;13.48;;;6.95;;
74793;SDS011;63320;50.768;6.724;2023-08-21T12:24:05;13.32;;;8.07;;
74793;SDS011;63320;50.768;6.724;2023-08-21T12:26:30;11.27;;;7.15;;
74793;SDS011;63320;50.768;6.724;2023-08-21T12:28:57;11.80;;;5.95;;
74793;SDS011;63320;50.768;6.724;2023-08-21T12:31:23;13.25;;;6.80;;
74793;SDS011;63320;50.768;6.724;2023-08-21T12:33:48;13.25;;;7.68;;
74793;SDS011;63320;50.768;6.724;2023-08-21T12:36:13;12.60;;;6.68;;
74793;SDS011;63320;50.768;6.724;2023-08-21T12:38:38;11.27;;;6.13;;
74793;SDS011;63320;50.768;6.724;2023-08-21T12:41:04;14.23;;;6.68;;
74793;SDS011;63320;50.768;6.724;2023-08-21T12:43:29;11.80;;;5.55;;
74793;SDS011;63320;50.768;6.724;2023-08-21T12:45:56;12.10;;;5.32;;
74793;SDS011;63320;50.768;6.724;2023-08-21T12:48:22;13.30;;;4.30;;
74793;SDS011;63320;50.768;6.724;2023-08-21T12:50:47;7.75;;;3.80;;
74793;SDS011;63320;50.768;6.724;2023-08-21T12:53:13;9.20;;;3.70;;
74793;SDS011;63320;50.768;6.724;2023-08-21T12:55:38;13.20;;;4.55;;
74793;SDS011;63320;50.768;6.724;2023-08-21T12:58:03;11.65;;;4.30;;
74793;SDS011;63320;50.768;6.724;2023-08-21T13:00:29;6.78;;;3.38;;
74793;SDS011;63320;50.768;6.724;2023-08-21T13:02:56;6.38;;;3.35;;
74793;SDS011;63320;50.768;6.724;2023-08-21T13:05:21;8.55;;;3.60;;
74793;SDS011;63320;50.768;6.724;2023-08-21T13:07:46;8.15;;;3.58;;
74793;SDS011;63320;50.768;6.724;2023-08-21T13:10:12;9.93;;;3.22;;
74793;SDS011;63320;50.768;6.724;2023-08-21T13:12:38;10.82;;;3.92;;
74793;SDS011;63320;50.768;6.724;2023-08-21T13:15:04;8.30;;;2.75;;
74793;SDS011;63320;50.768;6.724;2023-08-21T13:17:30;8.90;;;3.65;;
74793;SDS011;63320;50.768;6.724;2023-08-21T13:19:56;75.15;;;6.35;;
74793;SDS011;63320;50.768;6.724;2023-08-21T13:22:22;15.82;;;3.72;;
74793;SDS011;63320;50.768;6.724;2023-08-21T13:24:47;10.95;;;3.03;;
74793;SDS011;63320;50.768;6.724;2023-08-21T13:27:12;6.80;;;2.40;;
74793;SDS011;63320;50.768;6.724;2023-08-21T13:29:38;9.25;;;2.67;;
74793;SDS011;63320;50.768;6.724;2023-08-21T13:32:03;8.77;;;2.70;;
74793;SDS011;63320;50.768;6.724;2023-08-21T13:34:29;14.10;;;3.50;;
74793;SDS011;63320;50.768;6.724;2023-08-21T13:36:55;8.93;;;2.67;;
74793;SDS011;63320;50.768;6.724;2023-08-21T13:39:21;10.27;;;2.55;;
74793;SDS011;63320;50.768;6.724;2023-08-21T13:41:46;7.75;;;2.80;;
74793;SDS011;63320;50.768;6.724;2023-08-21T13:44:13;7.57;;;2.40;;
74793;SDS011;63320;50.768;6.724;2023-08-21T13:46:38;14.50;;;3.03;;
74793;SDS011;63320;50.768;6.724;2023-08-21T13:49:03;8.18;;;2.60;;
74793;SDS011;63320;50.768;6.724;2023-08-21T13:51:29;7.85;;;2.78;;
74793;SDS011;63320;50.768;6.724;2023-08-21T13:53:55;9.88;;;2.67;;
74793;SDS011;63320;50.768;6.724;2023-08-21T13:56:22;11.20;;;3.38;;
74793;SDS011;63320;50.768;6.724;2023-08-21T13:58:47;9.40;;;2.80;;
74793;SDS011;63320;50.768;6.724;2023-08-21T14:01:13;11.82;;;3.05;;
74793;SDS011;63320;50.768;6.724;2023-08-21T14:03:38;8.98;;;2.58;;
74793;SDS011;63320;50.768;6.724;2023-08-21T14:06:03;9.80;;;2.85;;
74793;SDS011;63320;50.768;6.724;2023-08-21T14:08:29;9.15;;;2.70;;
74793;SDS011;63320;50.768;6.724;2023-08-21T14:10:56;14.48;;;3.05;;
74793;SDS011;63320;50.768;6.724;2023-08-21T14:13:21;10.23;;;2.85;;
74793;SDS011;63320;50.768;6.724;2023-08-21T14:15:46;10.65;;;2.20;;
74793;SDS011;63320;50.768;6.724;2023-08-21T14:18:12;6.50;;;2.40;;
74793;SDS011;63320;50.768;6.724;2023-08-21T14:20:37;11.40;;;2.47;;
74793;SDS011;63320;50.768;6.724;2023-08-21T14:23:02;5.90;;;1.98;;
74793;SDS011;63320;50.768;6.724;2023-08-21T14:25:28;6.82;;;2.33;;
74793;SDS011;63320;50.768;6.724;2023-08-21T14:27:54;11.20;;;2.63;;
74793;SDS011;63320;50.768;6.724;2023-08-21T14:30:20;14.80;;;2.88;;